sensor_id;sensor_type;location;lat;lon;timestamp;P1;durP1;ratioP1;P2;durP2;ratioP2
66970;SDS011;53901;51.466;-2.588;2023-05-16T00:02:11;4.43;;;1.30;;
66970;SDS011;53901;51.466;-2.588;2023-05-16T00:04:37;4.45;;;1.17;;
66970;SDS011;53901;51.466;-2.588;2023-05-16T00:07:02;3.60;;;1.40;;
66970;SDS011;53901;51.466;-2.588;2023-05-16T00:09:28;4.28;;;1.30;;
66970;SDS011;53901;51.466;-2.588;2023-05-16T00:11:53;6.03;;;1.20;;
66970;SDS011;53901;51.466;-2.588;2023-05-16T00:14:19;5.07;;;1.33;;
66970;SDS011;53901;51.466;-2.588;2023-05-16T00:16:44;5.60;;;1.17;;
66970;SDS011;53901;51.466;-2.588;2023-05-16T00:19:11;4.05;;;1.17;;
66970;SDS011;53901;51.466;-2.588;2023-05-16T00:21:36;3.42;;;1.30;;
66970;SDS011;53901;51.466;-2.588;2023-05-16T00:24:05;5.90;;;1.35;;
66970;SDS011;53901;51.466;-2.588;2023-05-16T00:26:31;2.22;;;1.05;;
66970;SDS011;53901;51.466;-2.588;2023-05-16T00:28:57;5.18;;;1.20;;
66970;SDS011;53901;51.466;-2.588;2023-05-16T00:31:22;3.38;;;1.30;;
66970;SDS011;53901;51.466;-2.588;2023-05-16T00:33:47;4.82;;;1.40;;
66970;SDS011;53901;51.466;-2.588;2023-05-16T00:36:13;7.63;;;1.35;;
66970;SDS011;53901;51.466;-2.588;2023-05-16T00:38:38;5.78;;;1.27;;
66970;SDS011;53901;51.466;-2.588;2023-05-16T00:41:03;3.60;;;1.20;;
66970;SDS011;53901;51.466;-2.588;2023-05-16T00:43:29;6.45;;;1.70;;
66970;SDS011;53901;51.466;-2.588;2023-05-16T00:45:55;2.95;;;1.25;;
66970;SDS011;53901;51.466;-2.588;2023-05-16T00:48:22;8.90;;;1.50;;
66970;SDS011;53901;51.466;-2.588;2023-05-16T00:50:47;6.07;;;1.40;;
66970;SDS011;53901;51.466;-2.588;2023-05-16T00:53:13;2.05;;;0.82;;
66970;SDS011;53901;51.466;-2.588;2023-05-16T00:55:39;3.40;;;1.00;;
66970;SDS011;53901;51.466;-2.588;2023-05-16T00:58:04;5.78;;;1.48;;
66970;SDS011;53901;51.466;-2.588;2023-05-16T01:00:30;5.00;;;1.40;;
66970;SDS011;53901;51.466;-2.588;2023-05-16T01:02:56;4.82;;;1.25;;
66970;SDS011;53901;51.466;-2.588;2023-05-16T01:05:21;4.25;;;1.05;;
66970;SDS011;53901;51.466;-2.588;2023-05-16T01:07:47;4.22;;;1.38;;
66970;SDS011;53901;51.466;-2.588;2023-05-16T01:10:12;4.38;;;1.50;;
66970;SDS011;53901;51.466;-2.588;2023-05-16T01:12:44;6.35;;;1.50;;
66970;SDS011;53901;51.466;-2.588;2023-05-16T01:15:22;5.43;;;1.58;;
66970;SDS011;53901;51.466;-2.588;2023-05-16T01:20:48;6.07;;;1.88;;
66970;SDS011;53901;51.466;-2.588;2023-05-16T01:28:47;6.45;;;1.50;;
66970;SDS011;53901;51.466;-2.588;2023-05-16T01:31:13;6.35;;;1.63;;
66970;SDS011;53901;51.466;-2.588;2023-05-16T01:33:40;5.22;;;1.50;;
66970;SDS011;53901;51.466;-2.588;2023-05-16T01:38:55;5.63;;;1.42;;
66970;SDS011;53901;51.466;-2.588;2023-05-16T01:44:30;11.65;;;1.42;;
66970;SDS011;53901;51.466;-2.588;2023-05-16T01:47:00;7.47;;;1.77;;
66970;SDS011;53901;51.466;-2.588;2023-05-16T01:54:42;7.20;;;1.25;;
66970;SDS011;53901;51.466;-2.588;2023-05-16T01:57:09;4.63;;;1.48;;
66970;SDS011;53901;51.466;-2.588;2023-05-16T01:59:34;10.32;;;1.98;;
66970;SDS011;53901;51.466;-2.588;2023-05-16T02:02:01;9.55;;;1.30;;
66970;SDS011;53901;51.466;-2.588;2023-05-16T02:04:26;7.70;;;1.55;;
66970;SDS011;53901;51.466;-2.588;2023-05-16T02:06:51;4.72;;;1.30;;
66970;SDS011;53901;51.466;-2.588;2023-05-16T02:09:17;3.97;;;1.23;;
66970;SDS011;53901;51.466;-2.588;2023-05-16T02:11:43;5.22;;;1.30;;
66970;SDS011;53901;51.466;-2.588;2023-05-16T02:14:08;5.55;;;1.65;;
66970;SDS011;53901;51.466;-2.588;2023-05-16T02:16:34;5.20;;;1.13;;
66970;SDS011;53901;51.466;-2.588;2023-05-16T02:19:00;4.50;;;1.15;;
66970;SDS011;53901;51.466;-2.588;2023-05-16T02:21:25;2.22;;;1.10;;
66970;SDS011;53901;51.466;-2.588;2023-05-16T02:23:50;3.65;;;1.20;;
66970;SDS011;53901;51.466;-2.588;2023-05-16T02:26:16;6.40;;;1.63;;
66970;SDS011;53901;51.466;-2.588;2023-05-16T02:28:41;3.72;;;1.50;;
66970;SDS011;53901;51.466;-2.588;2023-05-16T02:31:07;5.55;;;1.77;;
66970;SDS011;53901;51.466;-2.588;2023-05-16T02:33:32;5.50;;;2.03;;
66970;SDS011;53901;51.466;-2.588;2023-05-16T02:35:58;7.82;;;1.70;;
66970;SDS011;53901;51.466;-2.588;2023-05-16T02:38:24;9.77;;;2.25;;
66970;SDS011;53901;51.466;-2.588;2023-05-16T02:40:49;6.32;;;1.75;;
66970;SDS011;53901;51.466;-2.588;2023-05-16T02:43:15;6.32;;;2.00;;
66970;SDS011;53901;51.466;-2.588;2023-05-16T02:45:40;5.05;;;2.10;;
66970;SDS011;53901;51.466;-2.588;2023-05-16T02:48:05;6.60;;;2.13;;
66970;SDS011;53901;51.466;-2.588;2023-05-16T02:50:31;4.63;;;1.90;;
66970;SDS011;53901;51.466;-2.588;2023-05-16T02:52:57;6.75;;;2.25;;
66970;SDS011;53901;51.466;-2.588;2023-05-16T02:55:24;7.07;;;2.58;;
66970;SDS011;53901;51.466;-2.588;2023-05-16T02:57:50;5.18;;;2.25;;
66970;SDS011;53901;51.466;-2.588;2023-05-16T03:00:16;7.38;;;2.38;;
66970;SDS011;53901;51.466;-2.588;2023-05-16T03:02:42;6.05;;;2.38;;
66970;SDS011;53901;51.466;-2.588;2023-05-16T03:05:08;7.68;;;2.15;;
66970;SDS011;53901;51.466;-2.588;2023-05-16T03:07:34;6.18;;;2.05;;
66970;SDS011;53901;51.466;-2.588;2023-05-16T03:09:59;5.00;;;2.00;;
66970;SDS011;53901;51.466;-2.588;2023-05-16T03:12:25;8.98;;;2.15;;
66970;SDS011;53901;51.466;-2.588;2023-05-16T03:14:50;7.78;;;2.50;;
66970;SDS011;53901;51.466;-2.588;2023-05-16T03:17:18;5.88;;;2.38;;
66970;SDS011;53901;51.466;-2.588;2023-05-16T03:19:44;8.23;;;2.50;;
66970;SDS011;53901;51.466;-2.588;2023-05-16T03:22:09;8.98;;;2.22;;
66970;SDS011;53901;51.466;-2.588;2023-05-16T03:24:35;8.35;;;2.30;;
66970;SDS011;53901;51.466;-2.588;2023-05-16T03:27:00;6.53;;;2.08;;
66970;SDS011;53901;51.466;-2.588;2023-05-16T03:29:27;9.25;;;2.67;;
66970;SDS011;53901;51.466;-2.588;2023-05-16T03:31:53;5.22;;;2.50;;
66970;SDS011;53901;51.466;-2.588;2023-05-16T03:34:18;7.22;;;2.70;;
66970;SDS011;53901;51.466;-2.588;2023-05-16T03:36:44;10.57;;;2.97;;
66970;SDS011;53901;51.466;-2.588;2023-05-16T03:39:09;5.28;;;2.30;;
66970;SDS011;53901;51.466;-2.588;2023-05-16T03:41:35;5.82;;;2.40;;
66970;SDS011;53901;51.466;-2.588;2023-05-16T03:44:00;8.32;;;2.22;;
66970;SDS011;53901;51.466;-2.588;2023-05-16T03:46:26;7.05;;;2.38;;
66970;SDS011;53901;51.466;-2.588;2023-05-16T03:48:51;6.50;;;2.42;;
66970;SDS011;53901;51.466;-2.588;2023-05-16T03:51:16;5.07;;;2.25;;
66970;SDS011;53901;51.466;-2.588;2023-05-16T03:53:42;4.32;;;1.80;;
66970;SDS011;53901;51.466;-2.588;2023-05-16T03:56:07;6.78;;;2.03;;
66970;SDS011;53901;51.466;-2.588;2023-05-16T03:58:32;4.55;;;1.65;;
66970;SDS011;53901;51.466;-2.588;2023-05-16T04:00:58;5.13;;;1.48;;
66970;SDS011;53901;51.466;-2.588;2023-05-16T04:03:23;3.08;;;1.30;;
66970;SDS011;53901;51.466;-2.588;2023-05-16T04:05:53;3.55;;;1.40;;
66970;SDS011;53901;51.466;-2.588;2023-05-16T04:08:19;3.63;;;1.45;;
66970;SDS011;53901;51.466;-2.588;2023-05-16T04:10:45;5.10;;;1.63;;
66970;SDS011;53901;51.466;-2.588;2023-05-16T04:13:10;5.25;;;1.48;;
66970;SDS011;53901;51.466;-2.588;2023-05-16T04:15:36;3.35;;;1.27;;
66970;SDS011;53901;51.466;-2.588;2023-05-16T04:18:01;4.68;;;1.40;;
66970;SDS011;53901;51.466;-2.588;2023-05-16T04:20:27;10.40;;;1.40;;
66970;SDS011;53901;51.466;-2.588;2023-05-16T04:22:52;5.53;;;1.50;;
66970;SDS011;53901;51.466;-2.588;2023-05-16T04:25:17;3.15;;;1.45;;
66970;SDS011;53901;51.466;-2.588;2023-05-16T04:27:43;6.63;;;1.60;;
66970;SDS011;53901;51.466;-2.588;2023-05-16T04:30:08;6.65;;;1.80;;
66970;SDS011;53901;51.466;-2.588;2023-05-16T04:32:36;4.72;;;1.90;;
66970;SDS011;53901;51.466;-2.588;2023-05-16T04:35:01;4.70;;;1.70;;
66970;SDS011;53901;51.466;-2.588;2023-05-16T04:37:27;5.15;;;1.60;;
66970;SDS011;53901;51.466;-2.588;2023-05-16T04:39:52;6.22;;;1.65;;
66970;SDS011;53901;51.466;-2.588;2023-05-16T04:42:18;4.57;;;1.33;;
66970;SDS011;53901;51.466;-2.588;2023-05-16T04:44:44;4.57;;;1.70;;
66970;SDS011;53901;51.466;-2.588;2023-05-16T04:47:11;2.53;;;1.40;;
66970;SDS011;53901;51.466;-2.588;2023-05-16T04:49:37;8.40;;;1.60;;
66970;SDS011;53901;51.466;-2.588;2023-05-16T04:52:03;5.10;;;1.40;;
66970;SDS011;53901;51.466;-2.588;2023-05-16T04:54:30;6.43;;;2.05;;
66970;SDS011;53901;51.466;-2.588;2023-05-16T04:56:55;4.03;;;2.20;;
66970;SDS011;53901;51.466;-2.588;2023-05-16T04:59:21;9.52;;;2.67;;
66970;SDS011;53901;51.466;-2.588;2023-05-16T05:01:47;6.70;;;2.67;;
66970;SDS011;53901;51.466;-2.588;2023-05-16T05:04:12;7.03;;;2.20;;
66970;SDS011;53901;51.466;-2.588;2023-05-16T05:06:37;7.13;;;2.17;;
66970;SDS011;53901;51.466;-2.588;2023-05-16T05:09:03;12.27;;;2.80;;
66970;SDS011;53901;51.466;-2.588;2023-05-16T05:11:30;6.38;;;2.33;;
66970;SDS011;53901;51.466;-2.588;2023-05-16T05:13:58;7.22;;;2.40;;
66970;SDS011;53901;51.466;-2.588;2023-05-16T05:16:23;4.20;;;2.08;;
66970;SDS011;53901;51.466;-2.588;2023-05-16T05:18:49;8.82;;;2.45;;
66970;SDS011;53901;51.466;-2.588;2023-05-16T05:21:14;5.25;;;2.10;;
66970;SDS011;53901;51.466;-2.588;2023-05-16T05:23:40;7.15;;;1.92;;
66970;SDS011;53901;51.466;-2.588;2023-05-16T05:26:05;12.02;;;2.25;;
66970;SDS011;53901;51.466;-2.588;2023-05-16T05:28:31;6.50;;;2.53;;
66970;SDS011;53901;51.466;-2.588;2023-05-16T05:30:56;8.35;;;2.50;;
66970;SDS011;53901;51.466;-2.588;2023-05-16T05:33:25;7.85;;;2.42;;
66970;SDS011;53901;51.466;-2.588;2023-05-16T05:35:51;5.03;;;2.17;;
66970;SDS011;53901;51.466;-2.588;2023-05-16T05:38:18;6.15;;;2.30;;
66970;SDS011;53901;51.466;-2.588;2023-05-16T05:40:44;7.93;;;2.30;;
66970;SDS011;53901;51.466;-2.588;2023-05-16T05:43:09;4.43;;;1.88;;
66970;SDS011;53901;51.466;-2.588;2023-05-16T05:45:35;6.28;;;2.13;;
66970;SDS011;53901;51.466;-2.588;2023-05-16T05:48:01;4.13;;;2.35;;
66970;SDS011;53901;51.466;-2.588;2023-05-16T05:50:26;6.07;;;2.13;;
66970;SDS011;53901;51.466;-2.588;2023-05-16T05:52:52;5.95;;;2.30;;
66970;SDS011;53901;51.466;-2.588;2023-05-16T05:55:18;5.90;;;2.30;;
66970;SDS011;53901;51.466;-2.588;2023-05-16T05:57:44;4.78;;;2.20;;
66970;SDS011;53901;51.466;-2.588;2023-05-16T06:00:09;5.85;;;2.10;;
66970;SDS011;53901;51.466;-2.588;2023-05-16T06:02:35;4.93;;;1.83;;
66970;SDS011;53901;51.466;-2.588;2023-05-16T06:05:01;8.05;;;2.50;;
66970;SDS011;53901;51.466;-2.588;2023-05-16T06:07:26;8.55;;;1.88;;
66970;SDS011;53901;51.466;-2.588;2023-05-16T06:09:51;4.63;;;1.42;;
66970;SDS011;53901;51.466;-2.588;2023-05-16T06:12:17;5.72;;;1.45;;
66970;SDS011;53901;51.466;-2.588;2023-05-16T06:14:42;6.70;;;1.40;;
66970;SDS011;53901;51.466;-2.588;2023-05-16T06:17:07;9.55;;;1.70;;
66970;SDS011;53901;51.466;-2.588;2023-05-16T06:19:33;3.92;;;1.10;;
66970;SDS011;53901;51.466;-2.588;2023-05-16T06:21:58;10.05;;;1.50;;
66970;SDS011;53901;51.466;-2.588;2023-05-16T06:24:23;6.03;;;1.40;;
66970;SDS011;53901;51.466;-2.588;2023-05-16T06:26:49;3.55;;;1.13;;
66970;SDS011;53901;51.466;-2.588;2023-05-16T06:29:15;8.75;;;1.45;;
66970;SDS011;53901;51.466;-2.588;2023-05-16T06:31:41;4.63;;;1.42;;
66970;SDS011;53901;51.466;-2.588;2023-05-16T06:34:06;6.88;;;1.40;;
66970;SDS011;53901;51.466;-2.588;2023-05-16T06:36:32;5.28;;;1.10;;
66970;SDS011;53901;51.466;-2.588;2023-05-16T06:38:57;5.80;;;1.20;;
66970;SDS011;53901;51.466;-2.588;2023-05-16T06:41:22;5.30;;;1.00;;
66970;SDS011;53901;51.466;-2.588;2023-05-16T06:43:48;4.97;;;1.33;;
66970;SDS011;53901;51.466;-2.588;2023-05-16T06:46:13;5.53;;;1.50;;
66970;SDS011;53901;51.466;-2.588;2023-05-16T06:48:39;4.68;;;0.90;;
66970;SDS011;53901;51.466;-2.588;2023-05-16T06:51:05;4.22;;;1.40;;
66970;SDS011;53901;51.466;-2.588;2023-05-16T06:53:30;4.22;;;1.05;;
66970;SDS011;53901;51.466;-2.588;2023-05-16T06:55:56;3.17;;;1.08;;
66970;SDS011;53901;51.466;-2.588;2023-05-16T06:58:21;5.80;;;1.30;;
66970;SDS011;53901;51.466;-2.588;2023-05-16T07:00:48;3.92;;;1.10;;
66970;SDS011;53901;51.466;-2.588;2023-05-16T07:03:13;5.53;;;1.00;;
66970;SDS011;53901;51.466;-2.588;2023-05-16T07:05:39;3.50;;;0.90;;
66970;SDS011;53901;51.466;-2.588;2023-05-16T07:08:05;4.03;;;1.10;;
66970;SDS011;53901;51.466;-2.588;2023-05-16T07:10:33;3.95;;;0.90;;
66970;SDS011;53901;51.466;-2.588;2023-05-16T07:12:58;7.05;;;1.00;;
66970;SDS011;53901;51.466;-2.588;2023-05-16T07:15:25;7.47;;;1.00;;
66970;SDS011;53901;51.466;-2.588;2023-05-16T07:17:51;6.80;;;1.00;;
66970;SDS011;53901;51.466;-2.588;2023-05-16T07:20:16;4.97;;;1.00;;
66970;SDS011;53901;51.466;-2.588;2023-05-16T07:22:41;5.32;;;1.10;;
66970;SDS011;53901;51.466;-2.588;2023-05-16T07:25:07;5.35;;;1.20;;
66970;SDS011;53901;51.466;-2.588;2023-05-16T07:27:37;3.45;;;1.30;;
66970;SDS011;53901;51.466;-2.588;2023-05-16T07:30:05;3.90;;;1.13;;
66970;SDS011;53901;51.466;-2.588;2023-05-16T07:32:33;4.13;;;1.15;;
66970;SDS011;53901;51.466;-2.588;2023-05-16T07:34:59;5.22;;;1.10;;
66970;SDS011;53901;51.466;-2.588;2023-05-16T07:37:24;5.78;;;1.40;;
66970;SDS011;53901;51.466;-2.588;2023-05-16T07:39:49;3.05;;;0.90;;
66970;SDS011;53901;51.466;-2.588;2023-05-16T07:42:15;3.67;;;0.90;;
66970;SDS011;53901;51.466;-2.588;2023-05-16T07:44:40;6.18;;;1.15;;
66970;SDS011;53901;51.466;-2.588;2023-05-16T07:47:06;5.97;;;1.20;;
66970;SDS011;53901;51.466;-2.588;2023-05-16T07:49:31;7.38;;;1.25;;
66970;SDS011;53901;51.466;-2.588;2023-05-16T07:51:57;4.07;;;0.88;;
66970;SDS011;53901;51.466;-2.588;2023-05-16T07:54:23;4.88;;;1.20;;
66970;SDS011;53901;51.466;-2.588;2023-05-16T07:56:48;4.85;;;1.25;;
66970;SDS011;53901;51.466;-2.588;2023-05-16T07:59:13;4.78;;;1.00;;
66970;SDS011;53901;51.466;-2.588;2023-05-16T08:01:39;6.05;;;1.20;;
66970;SDS011;53901;51.466;-2.588;2023-05-16T08:04:05;5.18;;;1.05;;
66970;SDS011;53901;51.466;-2.588;2023-05-16T08:06:31;6.63;;;1.30;;
66970;SDS011;53901;51.466;-2.588;2023-05-16T08:08:56;4.25;;;1.08;;
66970;SDS011;53901;51.466;-2.588;2023-05-16T08:11:21;5.38;;;1.73;;
66970;SDS011;53901;51.466;-2.588;2023-05-16T08:13:47;8.20;;;1.35;;
66970;SDS011;53901;51.466;-2.588;2023-05-16T08:16:13;4.13;;;1.08;;
66970;SDS011;53901;51.466;-2.588;2023-05-16T08:18:38;5.88;;;1.35;;
66970;SDS011;53901;51.466;-2.588;2023-05-16T08:21:04;6.40;;;1.02;;
66970;SDS011;53901;51.466;-2.588;2023-05-16T08:23:30;4.63;;;1.20;;
66970;SDS011;53901;51.466;-2.588;2023-05-16T08:25:55;8.10;;;1.10;;
66970;SDS011;53901;51.466;-2.588;2023-05-16T08:28:21;7.30;;;1.08;;
66970;SDS011;53901;51.466;-2.588;2023-05-16T08:30:46;6.32;;;1.10;;
66970;SDS011;53901;51.466;-2.588;2023-05-16T08:33:12;7.85;;;1.40;;
66970;SDS011;53901;51.466;-2.588;2023-05-16T08:35:40;4.70;;;1.10;;
66970;SDS011;53901;51.466;-2.588;2023-05-16T08:38:06;4.85;;;1.10;;
66970;SDS011;53901;51.466;-2.588;2023-05-16T08:40:32;9.50;;;1.10;;
66970;SDS011;53901;51.466;-2.588;2023-05-16T08:42:57;8.10;;;1.40;;
66970;SDS011;53901;51.466;-2.588;2023-05-16T08:45:23;9.30;;;1.10;;
66970;SDS011;53901;51.466;-2.588;2023-05-16T08:47:48;7.55;;;1.38;;
66970;SDS011;53901;51.466;-2.588;2023-05-16T08:50:15;6.70;;;1.10;;
66970;SDS011;53901;51.466;-2.588;2023-05-16T08:52:41;3.35;;;0.93;;
66970;SDS011;53901;51.466;-2.588;2023-05-16T08:55:08;6.85;;;1.13;;
66970;SDS011;53901;51.466;-2.588;2023-05-16T08:57:33;6.15;;;1.40;;
66970;SDS011;53901;51.466;-2.588;2023-05-16T08:59:59;7.78;;;1.15;;
66970;SDS011;53901;51.466;-2.588;2023-05-16T09:02:25;7.20;;;1.10;;
66970;SDS011;53901;51.466;-2.588;2023-05-16T09:04:54;10.52;;;1.30;;
66970;SDS011;53901;51.466;-2.588;2023-05-16T09:07:21;6.05;;;1.38;;
66970;SDS011;53901;51.466;-2.588;2023-05-16T09:09:46;5.13;;;1.42;;
66970;SDS011;53901;51.466;-2.588;2023-05-16T09:12:12;5.82;;;1.35;;
66970;SDS011;53901;51.466;-2.588;2023-05-16T09:14:37;4.60;;;1.23;;
66970;SDS011;53901;51.466;-2.588;2023-05-16T09:17:06;6.53;;;1.20;;
66970;SDS011;53901;51.466;-2.588;2023-05-16T09:19:39;4.72;;;1.38;;
66970;SDS011;53901;51.466;-2.588;2023-05-16T09:22:14;5.05;;;1.33;;
66970;SDS011;53901;51.466;-2.588;2023-05-16T09:24:44;5.43;;;1.30;;
66970;SDS011;53901;51.466;-2.588;2023-05-16T09:27:10;4.13;;;1.30;;
66970;SDS011;53901;51.466;-2.588;2023-05-16T09:29:39;5.78;;;1.30;;
66970;SDS011;53901;51.466;-2.588;2023-05-16T09:32:14;5.45;;;1.40;;
66970;SDS011;53901;51.466;-2.588;2023-05-16T09:34:44;11.48;;;1.80;;
66970;SDS011;53901;51.466;-2.588;2023-05-16T09:37:19;5.45;;;1.30;;
66970;SDS011;53901;51.466;-2.588;2023-05-16T09:39:48;7.25;;;1.17;;
66970;SDS011;53901;51.466;-2.588;2023-05-16T09:42:16;4.40;;;1.10;;
66970;SDS011;53901;51.466;-2.588;2023-05-16T09:44:50;4.00;;;1.10;;
66970;SDS011;53901;51.466;-2.588;2023-05-16T09:47:17;5.18;;;1.35;;
66970;SDS011;53901;51.466;-2.588;2023-05-16T09:49:44;6.13;;;1.50;;
66970;SDS011;53901;51.466;-2.588;2023-05-16T09:52:10;5.65;;;1.65;;
66970;SDS011;53901;51.466;-2.588;2023-05-16T09:54:36;4.78;;;1.40;;
66970;SDS011;53901;51.466;-2.588;2023-05-16T09:57:01;9.75;;;1.40;;
66970;SDS011;53901;51.466;-2.588;2023-05-16T09:59:27;6.20;;;1.98;;
66970;SDS011;53901;51.466;-2.588;2023-05-16T10:01:53;5.93;;;1.30;;
66970;SDS011;53901;51.466;-2.588;2023-05-16T10:04:19;6.40;;;1.25;;
66970;SDS011;53901;51.466;-2.588;2023-05-16T10:06:44;5.90;;;1.20;;
66970;SDS011;53901;51.466;-2.588;2023-05-16T10:09:10;3.97;;;1.42;;
66970;SDS011;53901;51.466;-2.588;2023-05-16T10:11:40;5.38;;;1.42;;
66970;SDS011;53901;51.466;-2.588;2023-05-16T10:14:07;6.93;;;1.50;;
66970;SDS011;53901;51.466;-2.588;2023-05-16T10:16:33;4.82;;;1.42;;
66970;SDS011;53901;51.466;-2.588;2023-05-16T10:18:59;7.72;;;1.40;;
66970;SDS011;53901;51.466;-2.588;2023-05-16T10:21:27;5.15;;;1.60;;
66970;SDS011;53901;51.466;-2.588;2023-05-16T10:23:53;7.43;;;1.23;;
66970;SDS011;53901;51.466;-2.588;2023-05-16T10:26:21;5.78;;;1.40;;
66970;SDS011;53901;51.466;-2.588;2023-05-16T10:28:47;5.10;;;1.40;;
66970;SDS011;53901;51.466;-2.588;2023-05-16T10:31:14;7.18;;;1.30;;
66970;SDS011;53901;51.466;-2.588;2023-05-16T10:33:40;4.80;;;1.13;;
66970;SDS011;53901;51.466;-2.588;2023-05-16T10:36:09;4.57;;;1.15;;
66970;SDS011;53901;51.466;-2.588;2023-05-16T10:38:35;2.88;;;1.05;;
66970;SDS011;53901;51.466;-2.588;2023-05-16T10:41:01;5.78;;;1.73;;
66970;SDS011;53901;51.466;-2.588;2023-05-16T10:43:30;6.05;;;1.40;;
66970;SDS011;53901;51.466;-2.588;2023-05-16T10:48:29;5.20;;;1.45;;
66970;SDS011;53901;51.466;-2.588;2023-05-16T10:50:56;5.15;;;1.45;;
66970;SDS011;53901;51.466;-2.588;2023-05-16T10:53:22;6.30;;;1.75;;
66970;SDS011;53901;51.466;-2.588;2023-05-16T11:06:23;5.30;;;1.13;;
66970;SDS011;53901;51.466;-2.588;2023-05-16T11:17:06;7.50;;;2.00;;
66970;SDS011;53901;51.466;-2.588;2023-05-16T11:19:33;8.07;;;1.98;;
66970;SDS011;53901;51.466;-2.588;2023-05-16T11:27:36;7.43;;;2.20;;
66970;SDS011;53901;51.466;-2.588;2023-05-16T11:32:38;7.93;;;2.03;;
66970;SDS011;53901;51.466;-2.588;2023-05-16T11:35:05;5.57;;;1.83;;
66970;SDS011;53901;51.466;-2.588;2023-05-16T11:37:33;5.70;;;2.10;;
66970;SDS011;53901;51.466;-2.588;2023-05-16T11:40:01;5.68;;;2.28;;
66970;SDS011;53901;51.466;-2.588;2023-05-16T11:42:33;7.22;;;1.85;;
66970;SDS011;53901;51.466;-2.588;2023-05-16T11:45:03;4.60;;;1.70;;
66970;SDS011;53901;51.466;-2.588;2023-05-16T11:47:31;4.60;;;1.67;;
66970;SDS011;53901;51.466;-2.588;2023-05-16T11:49:57;7.18;;;1.75;;
66970;SDS011;53901;51.466;-2.588;2023-05-16T11:52:22;6.03;;;2.08;;
66970;SDS011;53901;51.466;-2.588;2023-05-16T11:54:48;5.82;;;1.95;;
66970;SDS011;53901;51.466;-2.588;2023-05-16T11:57:14;6.18;;;2.28;;
66970;SDS011;53901;51.466;-2.588;2023-05-16T11:59:40;6.35;;;1.92;;
66970;SDS011;53901;51.466;-2.588;2023-05-16T12:02:06;4.85;;;1.88;;
66970;SDS011;53901;51.466;-2.588;2023-05-16T12:04:34;5.63;;;1.80;;
66970;SDS011;53901;51.466;-2.588;2023-05-16T12:07:02;7.13;;;2.20;;
66970;SDS011;53901;51.466;-2.588;2023-05-16T12:09:28;6.30;;;2.30;;
66970;SDS011;53901;51.466;-2.588;2023-05-16T12:11:54;6.53;;;2.22;;
66970;SDS011;53901;51.466;-2.588;2023-05-16T12:14:19;7.65;;;2.00;;
66970;SDS011;53901;51.466;-2.588;2023-05-16T12:16:45;9.13;;;2.22;;
66970;SDS011;53901;51.466;-2.588;2023-05-16T12:19:10;8.57;;;2.50;;
66970;SDS011;53901;51.466;-2.588;2023-05-16T12:21:37;6.72;;;2.10;;
66970;SDS011;53901;51.466;-2.588;2023-05-16T12:24:02;6.70;;;2.50;;
66970;SDS011;53901;51.466;-2.588;2023-05-16T12:26:31;6.10;;;2.10;;
66970;SDS011;53901;51.466;-2.588;2023-05-16T12:29:00;5.25;;;1.90;;
66970;SDS011;53901;51.466;-2.588;2023-05-16T12:31:29;5.30;;;2.00;;
66970;SDS011;53901;51.466;-2.588;2023-05-16T12:33:55;5.78;;;2.40;;
66970;SDS011;53901;51.466;-2.588;2023-05-16T12:36:21;5.25;;;2.10;;
66970;SDS011;53901;51.466;-2.588;2023-05-16T12:38:48;7.30;;;1.98;;
66970;SDS011;53901;51.466;-2.588;2023-05-16T12:41:17;5.70;;;2.13;;
66970;SDS011;53901;51.466;-2.588;2023-05-16T12:43:46;5.60;;;2.25;;
66970;SDS011;53901;51.466;-2.588;2023-05-16T12:46:12;5.60;;;2.33;;
66970;SDS011;53901;51.466;-2.588;2023-05-16T12:48:38;6.88;;;2.55;;
66970;SDS011;53901;51.466;-2.588;2023-05-16T12:51:11;8.82;;;2.28;;
66970;SDS011;53901;51.466;-2.588;2023-05-16T12:53:41;11.88;;;2.50;;
66970;SDS011;53901;51.466;-2.588;2023-05-16T12:56:11;5.57;;;2.10;;
66970;SDS011;53901;51.466;-2.588;2023-05-16T12:58:37;8.55;;;1.92;;
66970;SDS011;53901;51.466;-2.588;2023-05-16T13:01:03;8.27;;;2.33;;
66970;SDS011;53901;51.466;-2.588;2023-05-16T13:03:29;6.15;;;2.20;;
66970;SDS011;53901;51.466;-2.588;2023-05-16T13:05:55;6.10;;;2.17;;
66970;SDS011;53901;51.466;-2.588;2023-05-16T13:08:21;6.80;;;2.15;;
66970;SDS011;53901;51.466;-2.588;2023-05-16T13:10:47;7.32;;;2.13;;
66970;SDS011;53901;51.466;-2.588;2023-05-16T13:13:12;5.18;;;2.35;;
66970;SDS011;53901;51.466;-2.588;2023-05-16T13:15:38;9.13;;;2.58;;
66970;SDS011;53901;51.466;-2.588;2023-05-16T13:18:04;5.65;;;1.80;;
66970;SDS011;53901;51.466;-2.588;2023-05-16T13:20:30;4.72;;;2.15;;
66970;SDS011;53901;51.466;-2.588;2023-05-16T13:22:55;7.60;;;2.28;;
66970;SDS011;53901;51.466;-2.588;2023-05-16T13:25:20;7.03;;;2.38;;
66970;SDS011;53901;51.466;-2.588;2023-05-16T13:27:46;6.07;;;2.03;;
66970;SDS011;53901;51.466;-2.588;2023-05-16T13:30:13;5.35;;;1.98;;
66970;SDS011;53901;51.466;-2.588;2023-05-16T13:32:39;4.53;;;2.40;;
66970;SDS011;53901;51.466;-2.588;2023-05-16T13:35:05;6.25;;;2.00;;
66970;SDS011;53901;51.466;-2.588;2023-05-16T13:37:31;4.97;;;1.85;;
66970;SDS011;53901;51.466;-2.588;2023-05-16T13:39:56;6.10;;;2.50;;
66970;SDS011;53901;51.466;-2.588;2023-05-16T13:42:22;4.30;;;1.90;;
66970;SDS011;53901;51.466;-2.588;2023-05-16T13:44:47;5.95;;;2.40;;
66970;SDS011;53901;51.466;-2.588;2023-05-16T13:47:12;4.80;;;1.95;;
66970;SDS011;53901;51.466;-2.588;2023-05-16T13:49:38;6.07;;;2.60;;
66970;SDS011;53901;51.466;-2.588;2023-05-16T13:52:03;7.65;;;2.10;;
66970;SDS011;53901;51.466;-2.588;2023-05-16T13:54:30;4.43;;;1.90;;
66970;SDS011;53901;51.466;-2.588;2023-05-16T13:56:55;6.88;;;2.42;;
66970;SDS011;53901;51.466;-2.588;2023-05-16T13:59:21;8.52;;;2.10;;
66970;SDS011;53901;51.466;-2.588;2023-05-16T14:01:47;7.70;;;2.22;;
66970;SDS011;53901;51.466;-2.588;2023-05-16T14:04:12;5.53;;;2.42;;
66970;SDS011;53901;51.466;-2.588;2023-05-16T14:06:37;5.47;;;2.33;;
66970;SDS011;53901;51.466;-2.588;2023-05-16T14:09:03;5.40;;;2.20;;
66970;SDS011;53901;51.466;-2.588;2023-05-16T14:11:28;5.88;;;2.42;;
66970;SDS011;53901;51.466;-2.588;2023-05-16T14:13:54;6.93;;;2.20;;
66970;SDS011;53901;51.466;-2.588;2023-05-16T14:16:20;6.55;;;2.20;;
66970;SDS011;53901;51.466;-2.588;2023-05-16T14:18:45;6.97;;;2.20;;
66970;SDS011;53901;51.466;-2.588;2023-05-16T14:21:11;8.60;;;2.20;;
66970;SDS011;53901;51.466;-2.588;2023-05-16T14:23:37;4.97;;;2.13;;
66970;SDS011;53901;51.466;-2.588;2023-05-16T14:26:03;7.63;;;2.53;;
66970;SDS011;53901;51.466;-2.588;2023-05-16T14:28:29;6.72;;;1.98;;
66970;SDS011;53901;51.466;-2.588;2023-05-16T14:30:56;4.82;;;2.17;;
66970;SDS011;53901;51.466;-2.588;2023-05-16T14:33:22;6.20;;;2.17;;
66970;SDS011;53901;51.466;-2.588;2023-05-16T14:35:48;5.45;;;2.38;;
66970;SDS011;53901;51.466;-2.588;2023-05-16T14:38:14;7.47;;;2.30;;
66970;SDS011;53901;51.466;-2.588;2023-05-16T14:40:40;7.68;;;2.30;;
66970;SDS011;53901;51.466;-2.588;2023-05-16T14:43:05;8.57;;;2.28;;
66970;SDS011;53901;51.466;-2.588;2023-05-16T14:45:31;8.98;;;2.25;;
66970;SDS011;53901;51.466;-2.588;2023-05-16T14:47:57;9.93;;;2.47;;
66970;SDS011;53901;51.466;-2.588;2023-05-16T14:50:22;7.45;;;2.58;;
66970;SDS011;53901;51.466;-2.588;2023-05-16T14:52:48;6.20;;;2.42;;
66970;SDS011;53901;51.466;-2.588;2023-05-16T14:55:14;4.63;;;2.15;;
66970;SDS011;53901;51.466;-2.588;2023-05-16T14:57:39;6.65;;;2.42;;
66970;SDS011;53901;51.466;-2.588;2023-05-16T15:00:05;8.02;;;2.70;;
66970;SDS011;53901;51.466;-2.588;2023-05-16T15:02:34;4.95;;;2.13;;
66970;SDS011;53901;51.466;-2.588;2023-05-16T15:05:00;7.05;;;2.50;;
66970;SDS011;53901;51.466;-2.588;2023-05-16T15:07:25;4.15;;;2.40;;
66970;SDS011;53901;51.466;-2.588;2023-05-16T15:09:51;6.10;;;2.40;;
66970;SDS011;53901;51.466;-2.588;2023-05-16T15:12:16;5.10;;;2.50;;
66970;SDS011;53901;51.466;-2.588;2023-05-16T15:14:41;5.03;;;2.25;;
66970;SDS011;53901;51.466;-2.588;2023-05-16T15:17:07;6.60;;;2.60;;